createdAt,value
2023-07-09T00:01:18.572Z,18.02
2023-07-09T00:03:47.294Z,18.06
2023-07-09T00:06:15.356Z,18.04
2023-07-09T00:08:47.535Z,18.09
2023-07-09T00:11:16.939Z,18.08
2023-07-09T00:13:44.694Z,18.10
2023-07-09T00:16:15.670Z,18.07
2023-07-09T00:18:43.751Z,18.05
2023-07-09T00:21:11.269Z,17.95
2023-07-09T00:23:39.678Z,17.85
2023-07-09T00:26:10.897Z,17.75
2023-07-09T00:28:39.852Z,17.44
2023-07-09T00:31:10.850Z,17.63
2023-07-09T00:33:39.969Z,17.51
2023-07-09T00:36:16.606Z,17.40
2023-07-09T00:38:49.581Z,17.26
2023-07-09T00:41:20.198Z,17.23
2023-07-09T00:43:50.333Z,17.10
2023-07-09T00:46:55.020Z,16.93
2023-07-09T00:49:31.250Z,16.94
2023-07-09T00:52:03.536Z,16.91
2023-07-09T00:54:37.961Z,16.94
2023-07-09T00:57:11.014Z,17.09
2023-07-09T00:59:41.934Z,16.98
2023-07-09T01:02:10.835Z,17.33
2023-07-09T01:04:40.238Z,17.50
2023-07-09T01:07:08.649Z,17.42
2023-07-09T01:09:41.966Z,17.50
2023-07-09T01:12:11.270Z,17.70
2023-07-09T01:14:40.527Z,17.63
2023-07-09T01:17:12.704Z,17.29
2023-07-09T01:19:44.403Z,17.27
2023-07-09T01:22:15.794Z,17.16
2023-07-09T01:24:53.785Z,17.03
2023-07-09T01:27:27.493Z,16.91
2023-07-09T01:29:56.813Z,16.77
2023-07-09T01:32:24.527Z,16.64
2023-07-09T01:34:55.650Z,16.50
2023-07-09T01:37:27.882Z,16.41
2023-07-09T01:39:56.096Z,16.50
2023-07-09T01:42:25.979Z,16.51
2023-07-09T01:44:55.371Z,16.35
2023-07-09T01:47:24.808Z,16.20
2023-07-09T01:49:57.952Z,16.29
2023-07-09T01:52:29.116Z,16.25
2023-07-09T01:54:57.066Z,16.26
2023-07-09T01:57:27.040Z,16.18
2023-07-09T01:59:56.536Z,16.15
2023-07-09T02:02:24.760Z,16.18
2023-07-09T02:04:55.720Z,16.09
2023-07-09T02:07:25.270Z,16.08
2023-07-09T02:09:55.060Z,16.10
2023-07-09T02:12:22.668Z,16.06
2023-07-09T02:14:50.677Z,16.07
2023-07-09T02:17:18.935Z,16.02
2023-07-09T02:19:46.584Z,16.13
2023-07-09T02:22:14.365Z,16.18
2023-07-09T02:24:41.877Z,16.21
2023-07-09T02:27:12.204Z,16.48
2023-07-09T02:29:40.054Z,16.78
2023-07-09T02:32:08.533Z,17.03
2023-07-09T02:34:36.283Z,17.17
2023-07-09T02:37:04.126Z,17.18
2023-07-09T02:39:31.600Z,17.18
2023-07-09T02:41:59.049Z,17.15
2023-07-09T02:44:28.068Z,17.09
2023-07-09T02:46:56.821Z,17.00
2023-07-09T02:49:24.382Z,17.23
2023-07-09T02:51:51.880Z,17.29
2023-07-09T02:54:19.448Z,17.34
2023-07-09T02:56:47.572Z,17.37
2023-07-09T02:59:15.086Z,17.23
2023-07-09T03:01:44.404Z,17.27
2023-07-09T03:04:12.027Z,17.16
2023-07-09T03:06:39.620Z,16.85
2023-07-09T03:09:07.879Z,16.74
2023-07-09T03:11:36.978Z,16.70
2023-07-09T03:14:04.667Z,16.77
2023-07-09T03:16:34.210Z,16.76
2023-07-09T03:19:04.134Z,16.75
2023-07-09T03:21:31.628Z,16.73
2023-07-09T03:23:59.527Z,16.70
2023-07-09T03:26:27.360Z,16.75
2023-07-09T03:28:55.663Z,16.79
2023-07-09T03:31:24.285Z,16.70
2023-07-09T03:33:53.163Z,16.74
2023-07-09T03:36:22.498Z,16.78
2023-07-09T03:38:50.263Z,16.78
2023-07-09T03:41:18.286Z,16.84
2023-07-09T03:43:45.842Z,16.79
2023-07-09T03:46:13.798Z,16.77
2023-07-09T03:48:41.387Z,16.76
2023-07-09T03:51:08.927Z,16.68
2023-07-09T03:53:37.767Z,16.72
2023-07-09T03:56:05.749Z,16.77
2023-07-09T03:58:33.438Z,16.87
2023-07-09T04:01:00.961Z,16.83
2023-07-09T04:03:28.583Z,16.82
2023-07-09T04:05:56.260Z,16.87
2023-07-09T04:08:23.816Z,16.91
2023-07-09T04:10:55.461Z,17.00
2023-07-09T04:13:23.017Z,17.03
2023-07-09T04:15:50.872Z,17.02
2023-07-09T04:18:18.467Z,17.02
2023-07-09T04:20:50.522Z,17.01
2023-07-09T04:23:18.218Z,17.11
2023-07-09T04:25:45.826Z,17.22
2023-07-09T04:28:14.798Z,17.23
2023-07-09T04:30:48.904Z,17.32
2023-07-09T04:33:18.297Z,17.46
2023-07-09T04:35:46.707Z,17.52
2023-07-09T04:38:15.009Z,17.68
2023-07-09T04:40:42.615Z,17.77
2023-07-09T04:43:10.116Z,18.04
2023-07-09T04:45:39.005Z,18.21
2023-07-09T04:48:07.561Z,18.35
2023-07-09T04:50:35.408Z,18.58
2023-07-09T04:53:02.966Z,18.66
2023-07-09T04:55:30.596Z,18.77
2023-07-09T04:57:58.044Z,18.94
2023-07-09T05:00:25.730Z,19.16
2023-07-09T05:02:54.605Z,19.32
2023-07-09T05:05:22.229Z,19.37
2023-07-09T05:07:50.012Z,19.47
2023-07-09T05:10:17.593Z,19.60
2023-07-09T05:12:52.145Z,19.73
2023-07-09T05:15:20.647Z,19.79
2023-07-09T05:17:48.240Z,19.82
2023-07-09T05:20:17.774Z,19.71
2023-07-09T05:22:45.317Z,20.02
2023-07-09T05:25:14.038Z,20.15
2023-07-09T05:27:41.496Z,20.31
2023-07-09T05:30:09.944Z,20.46
2023-07-09T05:32:39.374Z,20.60
2023-07-09T05:35:08.278Z,20.83
2023-07-09T05:37:37.712Z,21.07
2023-07-09T05:40:06.493Z,21.33
2023-07-09T05:42:34.056Z,21.57
2023-07-09T05:45:01.905Z,21.71
2023-07-09T05:47:29.489Z,21.92
2023-07-09T05:49:57.025Z,22.30
2023-07-09T05:52:25.397Z,22.50
2023-07-09T05:54:54.644Z,22.73
2023-07-09T05:57:22.442Z,22.92
2023-07-09T05:59:50.658Z,23.03
2023-07-09T06:02:21.034Z,23.35
2023-07-09T06:04:50.009Z,23.51
2023-07-09T06:07:17.636Z,23.71
2023-07-09T06:09:46.764Z,23.65
2023-07-09T06:12:15.847Z,23.85
2023-07-09T06:14:43.493Z,24.13
2023-07-09T06:17:11.037Z,24.25
2023-07-09T06:19:39.104Z,24.33
2023-07-09T06:22:07.033Z,24.40
2023-07-09T06:24:34.602Z,24.37
2023-07-09T06:27:02.095Z,24.47
2023-07-09T06:29:30.975Z,24.92
2023-07-09T06:31:58.477Z,24.79
2023-07-09T06:34:25.956Z,24.88
2023-07-09T06:36:53.497Z,24.89
2023-07-09T06:39:21.360Z,25.11
2023-07-09T06:41:48.848Z,24.91
2023-07-09T06:44:16.460Z,25.43
2023-07-09T06:46:47.051Z,25.55
2023-07-09T06:49:14.967Z,25.75
2023-07-09T06:51:42.461Z,25.80
2023-07-09T06:54:10.674Z,25.74
2023-07-09T06:56:38.201Z,25.92
2023-07-09T06:59:05.971Z,26.02
2023-07-09T07:01:33.615Z,26.26
2023-07-09T07:04:02.552Z,26.46
2023-07-09T07:06:30.184Z,26.62
2023-07-09T07:08:57.721Z,26.86
2023-07-09T07:11:30.898Z,27.03
2023-07-09T07:13:58.673Z,27.31
2023-07-09T07:16:26.466Z,27.55
2023-07-09T07:18:53.992Z,27.70
2023-07-09T07:21:22.933Z,27.89
2023-07-09T07:23:52.734Z,27.98
2023-07-09T07:26:21.567Z,28.26
2023-07-09T07:28:49.056Z,28.14
2023-07-09T07:31:16.603Z,28.56
2023-07-09T07:33:44.681Z,28.76
2023-07-09T07:36:28.960Z,28.80
2023-07-09T07:38:59.272Z,28.79
2023-07-09T07:41:27.201Z,28.96
2023-07-09T07:43:54.820Z,28.96
2023-07-09T07:46:22.314Z,29.15
2023-07-09T07:48:49.841Z,28.87
2023-07-09T07:51:17.386Z,29.13
2023-07-09T07:53:45.180Z,29.37
2023-07-09T07:56:14.037Z,29.28
2023-07-09T07:58:41.515Z,29.39
2023-07-09T08:01:09.013Z,29.66
2023-07-09T08:03:36.719Z,29.63
2023-07-09T08:06:04.933Z,29.56
2023-07-09T08:08:32.654Z,29.54
2023-07-09T08:11:05.760Z,29.94
2023-07-09T08:13:35.042Z,30.11
2023-07-09T08:16:03.481Z,30.04
2023-07-09T08:18:31.419Z,30.04
2023-07-09T08:21:00.346Z,29.97
2023-07-09T08:23:27.856Z,30.02
2023-07-09T08:25:55.855Z,30.06
2023-07-09T08:28:23.487Z,29.95
2023-07-09T08:30:53.796Z,30.27
2023-07-09T08:33:21.333Z,30.18
2023-07-09T08:35:51.069Z,30.14
2023-07-09T08:38:19.721Z,30.29
2023-07-09T08:40:56.319Z,30.62
2023-07-09T08:43:34.062Z,30.71
2023-07-09T08:46:11.997Z,30.56
2023-07-09T08:48:44.132Z,30.57
2023-07-09T08:51:17.192Z,30.88
2023-07-09T08:53:50.197Z,30.86
2023-07-09T08:56:18.375Z,30.97
2023-07-09T08:58:47.624Z,30.73
2023-07-09T09:01:21.482Z,30.72
2023-07-09T09:03:52.564Z,30.36
2023-07-09T09:06:23.494Z,30.70
2023-07-09T09:09:00.676Z,30.70
2023-07-09T09:11:38.645Z,30.72
2023-07-09T09:14:13.725Z,30.79
2023-07-09T09:16:47.342Z,30.79
2023-07-09T09:19:22.179Z,30.89
2023-07-09T09:21:56.606Z,30.97
2023-07-09T09:24:31.270Z,30.95
2023-07-09T09:27:00.684Z,31.07
2023-07-09T09:29:28.744Z,31.22
2023-07-09T09:31:59.465Z,31.12
2023-07-09T09:34:29.166Z,31.13
2023-07-09T09:36:57.755Z,31.00
2023-07-09T09:39:26.514Z,31.07
2023-07-09T09:41:56.788Z,31.28
2023-07-09T09:44:28.008Z,30.98
2023-07-09T09:47:00.571Z,31.31
2023-07-09T09:49:29.152Z,31.31
2023-07-09T09:51:58.064Z,31.36
2023-07-09T09:54:31.247Z,31.55
2023-07-09T09:56:58.779Z,31.55
2023-07-09T09:59:31.912Z,31.73
2023-07-09T10:02:02.583Z,31.69
2023-07-09T10:04:30.255Z,31.54
2023-07-09T10:07:00.760Z,31.59
2023-07-09T10:09:39.833Z,31.73
2023-07-09T10:12:18.749Z,31.74
2023-07-09T10:14:54.841Z,31.66
2023-07-09T10:17:39.150Z,31.64
2023-07-09T10:20:17.351Z,31.67
2023-07-09T10:22:55.218Z,31.83
2023-07-09T10:25:35.976Z,31.83
2023-07-09T10:28:18.817Z,32.16
2023-07-09T10:30:57.125Z,32.19
2023-07-09T10:33:35.228Z,32.08
2023-07-09T10:36:23.572Z,32.54
2023-07-09T10:38:57.214Z,32.55
2023-07-09T10:41:28.171Z,32.63
2023-07-09T10:44:02.180Z,32.50
2023-07-09T10:46:37.186Z,32.47
2023-07-09T10:49:08.179Z,32.44
2023-07-09T10:51:43.956Z,32.37
2023-07-09T10:54:17.548Z,32.49
2023-07-09T10:56:48.864Z,32.06
2023-07-09T10:59:23.281Z,32.09
2023-07-09T11:01:54.531Z,32.39
2023-07-09T11:04:31.723Z,32.50
2023-07-09T11:07:03.295Z,32.57
2023-07-09T11:09:35.070Z,32.49
2023-07-09T11:12:08.322Z,32.54
2023-07-09T11:14:41.815Z,32.43
2023-07-09T11:17:16.380Z,32.81
2023-07-09T11:19:48.259Z,32.80
2023-07-09T11:22:23.285Z,32.66
2023-07-09T11:24:53.408Z,32.63
2023-07-09T11:27:24.138Z,32.63
2023-07-09T11:29:59.886Z,32.39
2023-07-09T11:32:29.363Z,32.34
2023-07-09T11:35:08.424Z,32.27
2023-07-09T11:37:47.170Z,32.52
2023-07-09T11:40:16.509Z,32.70
2023-07-09T11:42:55.494Z,32.80
2023-07-09T11:45:28.146Z,32.83
2023-07-09T11:48:05.921Z,33.01
2023-07-09T11:50:41.226Z,32.80
2023-07-09T11:53:28.906Z,32.67
2023-07-09T11:55:56.471Z,32.81
2023-07-09T11:58:24.070Z,32.61
2023-07-09T12:00:53.881Z,32.84
2023-07-09T12:03:25.081Z,32.43
2023-07-09T12:05:56.249Z,32.79
2023-07-09T12:08:29.283Z,32.48
2023-07-09T12:10:56.831Z,32.42
2023-07-09T12:13:24.410Z,32.90
2023-07-09T12:15:51.978Z,33.04
2023-07-09T12:18:19.742Z,32.84
2023-07-09T12:20:55.918Z,32.76
2023-07-09T12:23:27.547Z,32.98
2023-07-09T12:25:55.990Z,32.60
2023-07-09T12:28:24.275Z,32.42
2023-07-09T12:30:53.752Z,32.41
2023-07-09T12:33:25.004Z,32.22
2023-07-09T12:36:00.401Z,32.48
2023-07-09T12:38:30.552Z,32.81
2023-07-09T12:41:02.563Z,32.32
2023-07-09T12:43:32.891Z,32.14
2023-07-09T12:46:01.446Z,32.07
2023-07-09T12:48:31.517Z,31.99
2023-07-09T12:51:01.688Z,32.21
2023-07-09T12:53:31.508Z,32.11
2023-07-09T12:56:01.993Z,31.80
2023-07-09T12:58:32.833Z,31.49
2023-07-09T13:01:07.319Z,31.23
2023-07-09T13:03:36.217Z,31.08
2023-07-09T13:06:08.720Z,30.84
2023-07-09T13:08:44.241Z,30.67
2023-07-09T13:11:17.324Z,30.81
2023-07-09T13:13:56.892Z,30.93
2023-07-09T13:16:24.525Z,30.94
2023-07-09T13:18:52.013Z,30.81
2023-07-09T13:21:22.626Z,30.85
2023-07-09T13:23:50.998Z,30.76
2023-07-09T13:26:18.604Z,30.75
2023-07-09T13:28:46.519Z,30.65
2023-07-09T13:31:16.841Z,30.35
2023-07-09T13:33:44.647Z,30.20
2023-07-09T13:36:12.607Z,30.03
2023-07-09T13:38:42.251Z,30.00
2023-07-09T13:41:15.890Z,29.83
2023-07-09T13:43:45.365Z,29.69
2023-07-09T13:46:13.354Z,29.57
2023-07-09T13:48:43.363Z,29.34
2023-07-09T13:51:17.732Z,29.14
2023-07-09T13:53:47.189Z,28.67
2023-07-09T13:56:14.693Z,28.25
2023-07-09T13:58:42.165Z,27.75
2023-07-09T14:01:13.996Z,26.59
2023-07-09T14:03:41.640Z,26.04
2023-07-09T14:06:11.064Z,25.54
2023-07-09T14:08:38.539Z,25.08
2023-07-09T14:11:12.317Z,24.77
2023-07-09T14:13:40.389Z,24.38
2023-07-09T14:16:08.892Z,24.12
2023-07-09T14:18:36.519Z,23.64
2023-07-09T14:21:11.394Z,23.14
2023-07-09T14:23:38.895Z,22.69
2023-07-09T14:26:07.791Z,22.41
2023-07-09T14:28:35.398Z,22.20
2023-07-09T14:31:03.516Z,22.02
2023-07-09T14:33:31.373Z,21.70
2023-07-09T14:35:58.866Z,21.15
2023-07-09T14:38:27.494Z,20.84
2023-07-09T14:40:57.776Z,20.75
2023-07-09T14:43:26.634Z,20.58
2023-07-09T14:45:54.252Z,20.33
2023-07-09T14:48:22.759Z,19.75
2023-07-09T14:50:50.651Z,19.59
2023-07-09T14:53:23.853Z,19.56
2023-07-09T14:55:51.375Z,19.57
2023-07-09T14:58:20.991Z,19.58
2023-07-09T15:00:50.420Z,19.57
2023-07-09T15:03:21.774Z,19.55
2023-07-09T15:05:50.001Z,19.57
2023-07-09T15:08:19.556Z,19.57
2023-07-09T15:10:48.176Z,19.58
2023-07-09T15:13:19.667Z,19.57
2023-07-09T15:15:47.672Z,19.55
2023-07-09T15:18:18.408Z,19.52
2023-07-09T15:20:51.416Z,19.48
2023-07-09T15:23:19.482Z,19.41
2023-07-09T15:25:47.162Z,19.51
2023-07-09T15:28:14.677Z,19.55
2023-07-09T15:30:42.603Z,19.56
2023-07-09T15:33:16.862Z,19.68
2023-07-09T15:35:47.584Z,19.68
2023-07-09T15:38:35.846Z,19.61
2023-07-09T15:41:04.291Z,19.69
2023-07-09T15:43:32.043Z,19.75
2023-07-09T15:46:01.570Z,19.82
2023-07-09T15:48:33.565Z,19.92
2023-07-09T15:51:04.325Z,19.90
2023-07-09T15:53:33.157Z,20.04
2023-07-09T15:56:02.220Z,20.19
2023-07-09T15:58:35.157Z,20.32
2023-07-09T16:01:02.960Z,20.43
2023-07-09T16:03:31.173Z,20.44
2023-07-09T16:05:58.729Z,20.55
2023-07-09T16:08:28.034Z,20.67
2023-07-09T16:10:55.649Z,20.73
2023-07-09T16:13:25.002Z,20.95
2023-07-09T16:15:53.396Z,21.14
2023-07-09T16:18:21.365Z,21.23
2023-07-09T16:20:49.484Z,21.23
2023-07-09T16:23:19.549Z,21.33
2023-07-09T16:25:49.386Z,21.50
2023-07-09T16:28:20.597Z,21.62
2023-07-09T16:30:51.483Z,21.83
2023-07-09T16:33:19.136Z,21.99
2023-07-09T16:35:47.833Z,22.09
2023-07-09T16:38:15.366Z,21.95
2023-07-09T16:40:42.952Z,21.96
2023-07-09T16:43:16.675Z,22.05
2023-07-09T16:45:44.283Z,22.12
2023-07-09T16:48:17.898Z,22.37
2023-07-09T16:50:45.721Z,22.16
2023-07-09T16:53:15.479Z,22.12
2023-07-09T16:55:43.431Z,22.18
2023-07-09T16:58:25.919Z,22.04
2023-07-09T17:00:53.438Z,21.70
2023-07-09T17:03:20.993Z,21.47
2023-07-09T17:05:48.489Z,21.58
2023-07-09T17:08:15.954Z,21.76
2023-07-09T17:10:44.736Z,21.60
2023-07-09T17:13:21.489Z,21.51
2023-07-09T17:15:48.946Z,21.31
2023-07-09T17:18:20.824Z,21.33
2023-07-09T17:20:50.078Z,21.25
2023-07-09T17:23:17.855Z,21.31
2023-07-09T17:25:45.424Z,21.52
2023-07-09T17:28:17.987Z,21.58
2023-07-09T17:30:46.218Z,21.04
2023-07-09T17:33:14.031Z,21.37
2023-07-09T17:35:43.773Z,21.52
2023-07-09T17:38:15.950Z,21.85
2023-07-09T17:40:44.461Z,22.17
2023-07-09T17:43:17.228Z,22.57
2023-07-09T17:45:45.964Z,22.56
2023-07-09T17:48:18.225Z,22.11
2023-07-09T17:50:47.161Z,22.06
2023-07-09T17:53:19.084Z,21.87
2023-07-09T17:55:47.307Z,21.85
2023-07-09T17:58:25.717Z,21.77
2023-07-09T18:00:56.618Z,21.86
2023-07-09T18:03:24.267Z,21.83
2023-07-09T18:05:52.007Z,21.83
2023-07-09T18:08:19.977Z,21.82
2023-07-09T18:10:48.905Z,21.72
2023-07-09T18:13:21.714Z,21.47
2023-07-09T18:15:51.076Z,21.48
2023-07-09T18:18:19.030Z,21.59
2023-07-09T18:20:46.477Z,21.53
2023-07-09T18:23:14.003Z,21.41
2023-07-09T18:25:43.972Z,21.51
2023-07-09T18:28:21.255Z,21.48
2023-07-09T18:30:54.275Z,21.52
2023-07-09T18:33:24.708Z,21.52
2023-07-09T18:35:52.212Z,21.55
2023-07-09T18:38:19.693Z,21.55
2023-07-09T18:40:49.071Z,21.51
2023-07-09T18:43:30.673Z,21.46
2023-07-09T18:46:01.085Z,21.19
2023-07-09T18:48:30.208Z,21.20
2023-07-09T18:50:59.788Z,21.05
2023-07-09T18:53:28.737Z,21.01
2023-07-09T18:55:56.890Z,20.86
2023-07-09T18:58:26.601Z,20.74
2023-07-09T19:00:55.318Z,20.69
2023-07-09T19:03:29.719Z,20.81
2023-07-09T19:05:57.464Z,20.85
2023-07-09T19:08:28.015Z,20.87
2023-07-09T19:10:55.748Z,20.88
2023-07-09T19:13:23.646Z,20.80
2023-07-09T19:15:53.512Z,20.78
2023-07-09T19:18:24.733Z,20.69
2023-07-09T19:20:55.236Z,20.57
2023-07-09T19:23:24.181Z,20.32
2023-07-09T19:25:53.313Z,20.31
2023-07-09T19:28:22.929Z,20.02
2023-07-09T19:30:53.423Z,20.17
2023-07-09T19:33:24.945Z,20.10
2023-07-09T19:35:54.272Z,20.00
2023-07-09T19:38:21.837Z,19.91
2023-07-09T19:40:49.431Z,19.88
2023-07-09T19:43:16.962Z,19.78
2023-07-09T19:45:46.654Z,19.74
2023-07-09T19:48:18.729Z,19.80
2023-07-09T19:50:48.970Z,19.75
2023-07-09T19:53:21.676Z,19.69
2023-07-09T19:55:49.601Z,19.58
2023-07-09T19:58:17.533Z,19.60
2023-07-09T20:00:45.732Z,19.48
2023-07-09T20:03:24.730Z,19.48
2023-07-09T20:05:53.060Z,19.41
2023-07-09T20:08:24.069Z,19.44
2023-07-09T20:10:53.034Z,19.38
2023-07-09T20:13:24.803Z,19.33
2023-07-09T20:15:52.654Z,19.29
2023-07-09T20:18:21.068Z,19.21
2023-07-09T20:20:52.109Z,19.20
2023-07-09T20:23:22.356Z,19.18
2023-07-09T20:25:54.109Z,19.09
2023-07-09T20:28:23.917Z,19.03
2023-07-09T20:30:54.559Z,19.01
2023-07-09T20:33:22.818Z,18.95
2023-07-09T20:35:50.893Z,18.94
2023-07-09T20:38:20.112Z,18.91
2023-07-09T20:40:48.412Z,18.84
2023-07-09T20:43:21.977Z,18.81
2023-07-09T20:45:50.064Z,18.93
2023-07-09T20:48:18.036Z,18.87
2023-07-09T20:50:45.653Z,18.87
2023-07-09T20:53:15.103Z,18.88
2023-07-09T20:55:43.532Z,18.84
2023-07-09T20:58:15.095Z,18.91
2023-07-09T21:00:44.931Z,18.79
2023-07-09T21:03:17.165Z,18.72
2023-07-09T21:05:45.596Z,18.74
2023-07-09T21:08:16.851Z,18.75
2023-07-09T21:10:45.284Z,18.73
2023-07-09T21:13:14.771Z,18.74
2023-07-09T21:15:44.272Z,18.73
2023-07-09T21:18:16.674Z,18.72
2023-07-09T21:20:44.370Z,18.66
2023-07-09T21:23:15.549Z,18.61
2023-07-09T21:25:43.268Z,18.56
2023-07-09T21:28:10.874Z,18.70
2023-07-09T21:30:38.541Z,18.60
2023-07-09T21:33:11.318Z,18.55
2023-07-09T21:35:38.980Z,18.44
2023-07-09T21:38:16.841Z,18.40
2023-07-09T21:40:44.341Z,18.41
2023-07-09T21:43:11.880Z,18.37
2023-07-09T21:45:43.080Z,18.35
2023-07-09T21:48:15.940Z,18.31
2023-07-09T21:50:43.957Z,18.29
2023-07-09T21:53:16.762Z,18.26
2023-07-09T21:55:44.524Z,18.31
2023-07-09T21:58:12.933Z,18.32
2023-07-09T22:00:54.514Z,18.34
2023-07-09T22:03:24.624Z,18.32
2023-07-09T22:05:52.335Z,18.21
2023-07-09T22:08:22.198Z,18.19
2023-07-09T22:10:50.175Z,18.18
2023-07-09T22:13:20.172Z,18.14
2023-07-09T22:15:48.649Z,18.18
2023-07-09T22:18:18.540Z,18.18
2023-07-09T22:20:49.108Z,18.05
2023-07-09T22:23:20.481Z,18.05
2023-07-09T22:25:49.032Z,18.03
2023-07-09T22:28:18.441Z,18.00
2023-07-09T22:30:46.646Z,17.91
2023-07-09T22:33:14.552Z,17.91
2023-07-09T22:35:42.076Z,18.03
2023-07-09T22:38:19.825Z,18.07
2023-07-09T22:40:47.746Z,18.08
2023-07-09T22:43:15.512Z,18.11
2023-07-09T22:45:45.506Z,18.16
2023-07-09T22:48:15.299Z,18.24
2023-07-09T22:50:43.138Z,18.13
2023-07-09T22:53:14.451Z,18.04
2023-07-09T22:55:45.376Z,17.97
2023-07-09T22:58:15.607Z,17.91
2023-07-09T23:00:45.954Z,18.01
2023-07-09T23:03:16.184Z,18.01
2023-07-09T23:05:44.433Z,18.09
2023-07-09T23:08:19.397Z,18.01
2023-07-09T23:10:48.943Z,17.98
2023-07-09T23:13:16.926Z,17.82
2023-07-09T23:15:44.478Z,17.76
2023-07-09T23:18:14.468Z,17.68
2023-07-09T23:20:42.149Z,17.71
2023-07-09T23:23:09.809Z,17.63
2023-07-09T23:25:37.590Z,17.65
2023-07-09T23:28:07.577Z,17.71
2023-07-09T23:30:36.668Z,17.67
2023-07-09T23:33:16.206Z,17.80
2023-07-09T23:35:43.720Z,17.77
2023-07-09T23:38:11.229Z,17.57
2023-07-09T23:40:38.712Z,17.39
2023-07-09T23:43:12.842Z,17.32
2023-07-09T23:45:40.870Z,17.26
2023-07-09T23:48:21.217Z,17.25
2023-07-09T23:50:48.750Z,17.20
2023-07-09T23:53:23.724Z,17.36
2023-07-09T23:55:51.270Z,17.44
2023-07-09T23:58:25.624Z,17.67
